createdAt,value
2019-03-01T00:00:03.858Z,13.40
2019-03-01T00:01:02.847Z,13.00
2019-03-01T00:02:02.829Z,11.40
2019-03-01T00:03:02.805Z,11.60
2019-03-01T00:04:02.805Z,11.00
2019-03-01T00:05:03.367Z,14.20
2019-03-01T00:06:02.750Z,11.70
2019-03-01T00:07:02.727Z,11.00
2019-03-01T00:08:02.713Z,11.60
2019-03-01T00:09:02.695Z,12.70
2019-03-01T00:10:02.685Z,10.90
2019-03-01T00:11:02.667Z,10.00
2019-03-01T00:12:02.627Z,13.80
2019-03-01T00:13:02.615Z,13.60
2019-03-01T00:14:02.588Z,12.70
2019-03-01T00:15:02.572Z,12.40
2019-03-01T00:16:02.563Z,14.70
2019-03-01T00:17:02.550Z,12.50
2019-03-01T00:18:02.517Z,11.10
2019-03-01T00:19:02.493Z,10.00
2019-03-01T00:20:02.474Z,11.30
2019-03-01T00:21:02.459Z,13.00
2019-03-01T00:22:02.438Z,12.90
2019-03-01T00:23:02.438Z,12.70
2019-03-01T00:24:02.394Z,13.20
2019-03-01T00:25:02.377Z,12.30
2019-03-01T00:26:02.363Z,12.40
2019-03-01T00:27:02.331Z,11.10
2019-03-01T00:28:02.315Z,10.40
2019-03-01T00:29:02.313Z,12.90
2019-03-01T00:30:02.281Z,14.50
2019-03-01T00:31:02.257Z,12.80
2019-03-01T00:32:02.239Z,12.90
2019-03-01T00:33:02.247Z,13.10
2019-03-01T00:34:02.206Z,12.70
2019-03-01T00:35:02.184Z,12.20
2019-03-01T00:36:02.160Z,11.40
2019-03-01T00:37:02.140Z,14.10
2019-03-01T00:38:02.119Z,13.90
2019-03-01T00:39:02.120Z,15.80
2019-03-01T00:40:02.090Z,14.90
2019-03-01T00:41:02.072Z,15.50
2019-03-01T00:42:02.061Z,13.70
2019-03-01T00:43:02.028Z,12.30
2019-03-01T00:44:02.006Z,13.10
2019-03-01T00:45:02.009Z,13.00
2019-03-01T00:46:01.994Z,14.80
2019-03-01T00:47:01.945Z,12.20
2019-03-01T00:48:01.923Z,14.10
2019-03-01T00:49:01.905Z,16.40
2019-03-01T00:50:01.904Z,13.90
2019-03-01T00:51:01.866Z,15.10
2019-03-01T00:52:01.862Z,16.80
2019-03-01T00:53:01.830Z,13.30
2019-03-01T00:54:01.808Z,15.20
2019-03-01T00:55:01.786Z,16.20
2019-03-01T00:56:01.769Z,14.90
2019-03-01T00:57:01.766Z,17.10
2019-03-01T00:58:01.746Z,15.90
2019-03-01T00:59:01.708Z,14.90
2019-03-01T01:00:01.685Z,14.70
2019-03-01T01:01:01.670Z,15.40
2019-03-01T01:02:01.651Z,17.50
2019-03-01T01:03:01.652Z,13.40
2019-03-01T01:04:01.611Z,15.00
2019-03-01T01:05:01.589Z,15.80
2019-03-01T01:06:01.576Z,14.10
2019-03-01T01:07:01.556Z,15.40
2019-03-01T01:08:01.549Z,16.60
2019-03-01T01:09:02.346Z,16.70
2019-03-01T01:10:01.583Z,15.50
2019-03-01T01:11:01.471Z,14.80
2019-03-01T01:12:02.396Z,17.00
2019-03-01T01:13:01.446Z,15.20
2019-03-01T01:14:01.431Z,16.10
2019-03-01T01:15:01.395Z,15.20
2019-03-01T01:16:01.372Z,14.70
2019-03-01T01:17:01.355Z,15.50
2019-03-01T01:18:01.338Z,16.80
2019-03-01T01:19:01.338Z,16.70
2019-03-01T01:20:01.310Z,17.70
2019-03-01T01:21:01.279Z,19.00
2019-03-01T01:22:01.259Z,20.60
2019-03-01T01:23:01.239Z,18.50
2019-03-01T01:24:01.221Z,18.00
2019-03-01T01:25:01.218Z,18.20
2019-03-01T01:26:01.177Z,19.00
2019-03-01T01:27:01.157Z,19.50
2019-03-01T01:28:01.144Z,20.70
2019-03-01T01:29:01.153Z,18.30
2019-03-01T01:30:01.106Z,18.60
2019-03-01T01:31:01.094Z,20.20
2019-03-01T01:32:01.062Z,22.60
2019-03-01T01:33:01.039Z,17.40
2019-03-01T01:34:01.019Z,20.30
2019-03-01T01:35:01.022Z,20.00
2019-03-01T01:36:00.983Z,19.30
2019-03-01T01:37:00.961Z,19.60
2019-03-01T01:38:00.945Z,17.00
2019-03-01T01:39:00.923Z,18.30
2019-03-01T01:40:00.929Z,17.60
2019-03-01T01:41:00.903Z,16.70
2019-03-01T01:42:00.868Z,19.90
2019-03-01T01:43:00.864Z,16.60
2019-03-01T01:44:00.824Z,17.30
2019-03-01T01:45:00.808Z,16.30
2019-03-01T01:46:00.802Z,16.60
2019-03-01T01:47:00.789Z,15.70
2019-03-01T01:48:00.743Z,16.80
2019-03-01T01:49:00.726Z,17.30
2019-03-01T01:50:00.709Z,19.40
2019-03-01T01:51:00.687Z,16.60
2019-03-01T01:52:00.693Z,16.30
2019-03-01T01:53:00.651Z,14.10
2019-03-01T01:54:00.629Z,17.40
2019-03-01T01:55:00.625Z,16.90
2019-03-01T01:56:00.588Z,15.00
2019-03-01T01:57:00.567Z,17.70
2019-03-01T01:58:00.549Z,16.70
2019-03-01T01:59:00.530Z,15.10
2019-03-01T02:00:00.530Z,15.70
2019-03-01T02:01:00.509Z,14.60
2019-03-01T02:02:01.394Z,16.60
2019-03-01T02:03:01.353Z,16.60
2019-03-01T02:04:00.436Z,15.50
2019-03-01T02:05:00.411Z,15.30
2019-03-01T02:06:00.411Z,17.50
2019-03-01T02:07:00.929Z,17.50
2019-03-01T02:08:00.348Z,16.70
2019-03-01T02:09:00.334Z,17.80
2019-03-01T02:10:00.361Z,17.40
2019-03-01T02:11:00.295Z,19.30
2019-03-01T02:12:00.292Z,18.30
2019-03-01T02:13:00.250Z,18.90
2019-03-01T02:14:00.235Z,15.80
2019-03-01T02:15:00.325Z,17.30
2019-03-01T02:16:00.199Z,17.40
2019-03-01T02:17:00.189Z,17.60
2019-03-01T02:18:00.151Z,18.10
2019-03-01T02:19:00.140Z,17.60
2019-03-01T02:20:00.287Z,19.60
2019-03-01T02:21:00.092Z,17.30
2019-03-01T02:22:00.097Z,16.50
2019-03-01T02:23:00.057Z,17.50
2019-03-01T02:24:00.035Z,16.60
2019-03-01T02:25:00.017Z,17.70
2019-03-01T02:25:59.996Z,19.40
2019-03-01T02:26:59.977Z,18.60
2019-03-01T02:27:59.973Z,16.20
2019-03-01T02:28:59.960Z,18.40
2019-03-01T02:29:59.919Z,17.90
2019-03-01T02:30:59.899Z,15.40
2019-03-01T02:31:59.882Z,16.90
2019-03-01T02:32:59.857Z,15.70
2019-03-01T02:33:59.864Z,18.60
2019-03-01T02:34:59.824Z,17.00
2019-03-01T02:35:59.824Z,18.60
2019-03-01T02:36:59.784Z,18.90
2019-03-01T02:38:00.862Z,16.90
2019-03-01T02:38:59.744Z,18.10
2019-03-01T02:39:59.726Z,20.40
2019-03-01T02:40:59.722Z,19.20
2019-03-01T02:41:59.691Z,20.70
2019-03-01T02:42:59.680Z,19.30
2019-03-01T02:43:59.645Z,20.00
2019-03-01T02:44:59.626Z,21.50
2019-03-01T02:45:59.604Z,18.90
2019-03-01T02:46:59.582Z,19.20
2019-03-01T02:47:59.580Z,19.40
2019-03-01T02:48:59.551Z,20.00
2019-03-01T02:49:59.526Z,20.40
2019-03-01T02:50:59.511Z,19.20
2019-03-01T02:51:59.487Z,21.20
2019-03-01T02:52:59.482Z,20.50
2019-03-01T02:54:00.362Z,20.00
2019-03-01T02:54:59.430Z,20.80
2019-03-01T02:55:59.420Z,18.70
2019-03-01T02:56:59.403Z,20.20
2019-03-01T02:57:59.373Z,22.00
2019-03-01T02:58:59.346Z,20.60
2019-03-01T02:59:59.346Z,19.80
2019-03-01T03:00:59.316Z,21.90
2019-03-01T03:01:59.305Z,19.40
2019-03-01T03:02:59.264Z,19.80
2019-03-01T03:03:59.250Z,21.80
2019-03-01T03:04:59.227Z,20.00
2019-03-01T03:05:59.230Z,20.60
2019-03-01T03:06:59.186Z,21.60
2019-03-01T03:07:59.171Z,20.00
2019-03-01T03:08:59.150Z,20.90
2019-03-01T03:09:59.134Z,23.00
2019-03-01T03:10:59.134Z,20.30
2019-03-01T03:11:59.090Z,21.30
2019-03-01T03:12:59.079Z,21.10
2019-03-01T03:13:59.864Z,19.60
2019-03-01T03:14:59.034Z,23.80
2019-03-01T03:15:59.014Z,23.20
2019-03-01T03:16:59.951Z,20.60
2019-03-01T03:17:58.974Z,19.70
2019-03-01T03:18:59.908Z,21.80
2019-03-01T03:19:58.938Z,25.80
2019-03-01T03:20:58.918Z,22.70
2019-03-01T03:21:59.404Z,21.70
2019-03-01T03:22:58.887Z,25.50
2019-03-01T03:23:59.384Z,24.40
2019-03-01T03:24:58.833Z,22.90
2019-03-01T03:25:58.813Z,21.70
2019-03-01T03:26:58.828Z,22.80
2019-03-01T03:27:58.793Z,23.30
2019-03-01T03:28:59.407Z,21.90
2019-03-01T03:29:58.775Z,24.50
2019-03-01T03:30:58.719Z,26.30
2019-03-01T03:31:58.781Z,24.20
2019-03-01T03:32:58.689Z,25.50
2019-03-01T03:33:58.685Z,23.40
2019-03-01T03:34:58.658Z,25.40
2019-03-01T03:35:58.616Z,22.90
2019-03-01T03:36:58.602Z,23.80
2019-03-01T03:37:58.585Z,25.20
2019-03-01T03:38:58.587Z,24.40
2019-03-01T03:39:58.543Z,25.40
2019-03-01T03:40:58.525Z,27.80
2019-03-01T03:41:59.376Z,24.50
2019-03-01T03:42:58.481Z,29.10
2019-03-01T03:43:58.465Z,27.30
2019-03-01T03:44:58.458Z,25.00
2019-03-01T03:45:58.440Z,23.80
2019-03-01T03:46:58.415Z,25.90
2019-03-01T03:47:58.396Z,26.60
2019-03-01T03:48:58.386Z,23.70
2019-03-01T03:49:58.357Z,26.70
2019-03-01T03:50:58.328Z,23.70
2019-03-01T03:51:58.324Z,26.80
2019-03-01T03:52:58.327Z,25.70
2019-03-01T03:53:58.272Z,25.20
2019-03-01T03:54:58.942Z,25.70
2019-03-01T03:55:58.238Z,26.60
2019-03-01T03:56:58.231Z,28.30
2019-03-01T03:57:58.191Z,27.80
2019-03-01T03:58:58.170Z,26.60
2019-03-01T03:59:58.147Z,26.80
2019-03-01T04:00:58.142Z,24.30
2019-03-01T04:01:58.219Z,27.70
2019-03-01T04:02:58.106Z,25.20
2019-03-01T04:03:58.082Z,26.30
2019-03-01T04:04:58.056Z,25.40
2019-03-01T04:05:58.037Z,28.40
2019-03-01T04:06:58.013Z,24.30
2019-03-01T04:07:58.009Z,24.40
2019-03-01T04:08:58.010Z,23.80
2019-03-01T04:09:57.958Z,25.50
2019-03-01T04:10:57.936Z,24.50
2019-03-01T04:11:57.937Z,22.90
2019-03-01T04:12:57.900Z,23.50
2019-03-01T04:13:57.906Z,26.50
2019-03-01T04:14:57.856Z,23.50
2019-03-01T04:15:58.445Z,29.40
2019-03-01T04:16:57.816Z,26.20
2019-03-01T04:17:57.818Z,23.40
2019-03-01T04:18:57.782Z,23.60
2019-03-01T04:19:57.761Z,26.90
2019-03-01T04:20:57.750Z,25.70
2019-03-01T04:21:57.737Z,25.20
2019-03-01T04:22:57.701Z,25.90
2019-03-01T04:23:57.691Z,22.20
2019-03-01T04:24:57.684Z,26.10
2019-03-01T04:25:57.645Z,27.60
2019-03-01T04:26:57.628Z,26.80
2019-03-01T04:27:57.606Z,25.90
2019-03-01T04:28:57.585Z,26.10
2019-03-01T04:29:57.612Z,21.60
2019-03-01T04:30:57.553Z,24.20
2019-03-01T04:31:57.527Z,25.70
2019-03-01T04:32:57.518Z,24.30
2019-03-01T04:33:57.494Z,23.00
2019-03-01T04:34:57.472Z,21.80
2019-03-01T04:35:57.466Z,23.50
2019-03-01T04:36:57.430Z,25.80
2019-03-01T04:37:57.420Z,23.00
2019-03-01T04:38:57.388Z,23.20
2019-03-01T04:39:57.373Z,23.90
2019-03-01T04:40:57.432Z,23.90
2019-03-01T04:41:58.379Z,26.30
2019-03-01T04:42:57.317Z,23.10
2019-03-01T04:43:57.301Z,23.10
2019-03-01T04:44:57.272Z,22.30
2019-03-01T04:45:57.261Z,24.30
2019-03-01T04:46:57.262Z,25.10
2019-03-01T04:47:57.233Z,24.30
2019-03-01T04:48:57.202Z,24.20
2019-03-01T04:49:57.175Z,24.00
2019-03-01T04:50:57.158Z,23.20
2019-03-01T04:51:57.897Z,20.40
2019-03-01T04:52:57.127Z,21.90
2019-03-01T04:53:57.109Z,26.50
2019-03-01T04:54:57.079Z,24.80
2019-03-01T04:55:57.063Z,23.90
2019-03-01T04:56:57.044Z,23.10
2019-03-01T04:57:57.038Z,24.10
2019-03-01T04:58:57.001Z,22.10
2019-03-01T04:59:56.982Z,25.20
2019-03-01T05:00:56.968Z,29.50
2019-03-01T05:01:56.945Z,28.90
2019-03-01T05:02:56.944Z,26.20
2019-03-01T05:03:56.906Z,26.60
2019-03-01T05:04:56.892Z,29.40
2019-03-01T05:05:56.884Z,26.60
2019-03-01T05:06:56.849Z,27.40
2019-03-01T05:07:56.899Z,27.50
2019-03-01T05:08:56.807Z,27.10
2019-03-01T05:09:56.790Z,28.90
2019-03-01T05:10:56.802Z,29.10
2019-03-01T05:11:57.424Z,28.60
2019-03-01T05:12:56.728Z,29.80
2019-03-01T05:13:56.719Z,28.90
2019-03-01T05:14:57.385Z,28.50
2019-03-01T05:15:56.711Z,28.80
2019-03-01T05:16:56.656Z,25.60
2019-03-01T05:17:56.649Z,28.00
2019-03-01T05:18:56.629Z,28.50
2019-03-01T05:19:56.594Z,28.30
2019-03-01T05:20:56.592Z,25.80
2019-03-01T05:21:56.555Z,25.60
2019-03-01T05:22:56.533Z,27.80
2019-03-01T05:23:56.519Z,29.30
2019-03-01T05:24:56.494Z,27.30
2019-03-01T05:25:56.497Z,28.20
2019-03-01T05:26:56.457Z,26.90
2019-03-01T05:27:56.438Z,26.90
2019-03-01T05:28:56.423Z,29.10
2019-03-01T05:29:56.403Z,27.50
2019-03-01T05:30:56.382Z,29.70
2019-03-01T05:31:56.378Z,27.30
2019-03-01T05:32:56.887Z,28.90
2019-03-01T05:33:56.319Z,26.70
2019-03-01T05:34:56.303Z,26.70
2019-03-01T05:35:56.292Z,30.50
2019-03-01T05:36:56.276Z,30.10
2019-03-01T05:37:56.263Z,28.00
2019-03-01T05:38:56.232Z,31.30
2019-03-01T05:39:56.204Z,30.70
2019-03-01T05:40:56.187Z,32.40
2019-03-01T05:41:56.195Z,32.00
2019-03-01T05:42:56.166Z,32.10
2019-03-01T05:43:56.126Z,33.10
2019-03-01T05:44:56.110Z,34.70
2019-03-01T05:45:56.092Z,32.50
2019-03-01T05:46:56.073Z,34.40
2019-03-01T05:47:56.057Z,35.80
2019-03-01T05:48:56.048Z,35.40
2019-03-01T05:49:56.012Z,35.40
2019-03-01T05:50:55.993Z,35.00
2019-03-01T05:51:55.974Z,39.90
2019-03-01T05:52:55.956Z,41.10
2019-03-01T05:53:55.948Z,38.10
2019-03-01T05:54:55.914Z,41.10
2019-03-01T05:55:55.899Z,41.00
2019-03-01T05:56:55.881Z,42.30
2019-03-01T05:57:55.864Z,44.10
2019-03-01T05:58:56.892Z,42.50
2019-03-01T05:59:55.821Z,46.10
2019-03-01T06:00:55.795Z,47.10
2019-03-01T06:01:55.782Z,43.50
2019-03-01T06:02:55.767Z,44.30
2019-03-01T06:03:55.740Z,49.00
2019-03-01T06:04:55.746Z,49.80
2019-03-01T06:05:55.701Z,56.90
2019-03-01T06:06:55.680Z,54.90
2019-03-01T06:07:55.662Z,59.10
2019-03-01T06:08:55.654Z,65.50
2019-03-01T06:09:55.651Z,65.20
2019-03-01T06:10:55.620Z,67.50
2019-03-01T06:11:55.579Z,67.80
2019-03-01T06:12:55.563Z,66.40
2019-03-01T06:13:55.538Z,73.70
2019-03-01T06:14:55.524Z,72.60
2019-03-01T06:15:55.507Z,73.00
2019-03-01T06:16:55.498Z,72.00
2019-03-01T06:17:55.465Z,73.40
2019-03-01T06:18:55.442Z,78.70
2019-03-01T06:19:55.427Z,84.70
2019-03-01T06:20:55.406Z,84.70
2019-03-01T06:21:55.403Z,88.10
2019-03-01T06:22:55.368Z,91.60
2019-03-01T06:23:55.919Z,90.90
2019-03-01T06:24:55.330Z,88.20
2019-03-01T06:25:55.310Z,93.50
2019-03-01T06:26:55.286Z,90.50
2019-03-01T06:27:55.270Z,91.60
2019-03-01T06:28:55.262Z,95.30
2019-03-01T06:29:55.249Z,99.80
2019-03-01T06:30:55.210Z,96.10
2019-03-01T06:31:55.193Z,95.60
2019-03-01T06:32:55.166Z,98.70
2019-03-01T06:33:55.150Z,101.50
2019-03-01T06:34:55.145Z,105.10
2019-03-01T06:35:55.111Z,108.00
2019-03-01T06:36:55.114Z,108.20
2019-03-01T06:37:55.096Z,110.50
2019-03-01T06:38:55.051Z,109.60
2019-03-01T06:39:55.195Z,109.40
2019-03-01T06:40:55.016Z,114.20
2019-03-01T06:41:54.994Z,111.90
2019-03-01T06:42:54.998Z,107.90
2019-03-01T06:43:54.956Z,112.50
2019-03-01T06:44:54.945Z,110.50
2019-03-01T06:45:54.929Z,109.20
2019-03-01T06:46:55.400Z,110.80
2019-03-01T06:47:54.894Z,116.40
2019-03-01T06:48:54.864Z,113.80
2019-03-01T06:49:54.836Z,109.00
2019-03-01T06:50:55.417Z,115.50
2019-03-01T06:51:54.800Z,116.90
2019-03-01T06:52:54.796Z,122.10
2019-03-01T06:53:54.765Z,119.50
2019-03-01T06:54:54.739Z,119.50
2019-03-01T06:55:56.407Z,122.90
2019-03-01T06:56:54.702Z,120.10
2019-03-01T06:57:54.689Z,117.90
2019-03-01T06:58:54.686Z,121.70
2019-03-01T06:59:54.646Z,114.90
2019-03-01T07:00:54.624Z,119.20
2019-03-01T07:01:54.626Z,119.30
2019-03-01T07:02:54.645Z,117.10
2019-03-01T07:03:56.451Z,118.20
2019-03-01T07:04:54.551Z,119.00
2019-03-01T07:06:02.983Z,123.50
2019-03-01T07:06:54.512Z,116.50
2019-03-01T07:07:54.511Z,122.20
2019-03-01T07:08:54.472Z,123.00
2019-03-01T07:09:54.463Z,119.90
2019-03-01T07:10:55.406Z,124.90
2019-03-01T07:11:54.415Z,128.60
2019-03-01T07:12:54.392Z,129.10
2019-03-01T07:13:55.406Z,128.00
2019-03-01T07:14:54.904Z,133.30
2019-03-01T07:15:54.351Z,134.70
2019-03-01T07:16:54.315Z,131.70
2019-03-01T07:17:54.294Z,132.70
2019-03-01T07:18:54.284Z,136.30
2019-03-01T07:19:54.258Z,129.70
2019-03-01T07:20:54.235Z,127.50
2019-03-01T07:21:54.243Z,129.10
2019-03-01T07:22:54.231Z,120.70
2019-03-01T07:23:54.977Z,126.10
2019-03-01T07:24:54.171Z,128.20
2019-03-01T07:25:54.915Z,129.00
2019-03-01T07:26:54.185Z,127.10
2019-03-01T07:27:54.103Z,137.20
2019-03-01T07:28:54.133Z,128.60
2019-03-01T07:29:54.060Z,125.70
2019-03-01T07:30:54.053Z,131.30
2019-03-01T07:31:54.052Z,130.10
2019-03-01T07:32:54.005Z,132.40
2019-03-01T07:33:53.983Z,134.30
2019-03-01T07:34:54.006Z,129.50
2019-03-01T07:35:53.942Z,137.20
2019-03-01T07:36:53.925Z,132.50
2019-03-01T07:37:53.906Z,140.70
2019-03-01T07:38:53.883Z,138.00
2019-03-01T07:39:53.883Z,136.40
2019-03-01T07:40:53.870Z,140.70
2019-03-01T07:41:53.828Z,141.50
2019-03-01T07:42:53.808Z,142.30
2019-03-01T07:43:53.790Z,140.80
2019-03-01T07:44:53.768Z,141.90
2019-03-01T07:45:53.770Z,142.30
2019-03-01T07:46:54.393Z,138.50
2019-03-01T07:47:53.713Z,146.40
2019-03-01T07:48:53.689Z,134.70
2019-03-01T07:49:53.670Z,136.00
2019-03-01T07:50:55.278Z,131.30
2019-03-01T07:51:53.655Z,131.10
2019-03-01T07:52:53.615Z,129.80
2019-03-01T07:55:39.894Z,134.50
2019-03-01T07:56:40.719Z,130.40
2019-03-01T07:57:39.839Z,126.10
2019-03-01T07:58:39.841Z,127.20
2019-03-01T07:59:39.806Z,125.90
2019-03-01T08:00:39.780Z,121.40
2019-03-01T08:01:39.758Z,120.80
2019-03-01T08:02:40.721Z,113.30
2019-03-01T08:03:39.721Z,118.10
2019-03-01T08:04:39.718Z,117.50
2019-03-01T08:05:40.466Z,121.20
2019-03-01T08:06:39.662Z,118.60
2019-03-01T08:07:39.645Z,117.70
2019-03-01T08:08:40.087Z,120.20
2019-03-01T08:09:41.261Z,125.80
2019-03-01T08:10:39.611Z,127.20
2019-03-01T08:11:39.572Z,126.40
2019-03-01T08:12:42.571Z,130.60
2019-03-01T08:13:39.525Z,128.10
2019-03-01T08:14:39.529Z,141.00
2019-03-01T08:15:40.741Z,138.50
2019-03-01T08:16:39.464Z,143.80
2019-03-01T08:17:39.454Z,152.20
2019-03-01T08:18:40.094Z,151.10
2019-03-01T08:19:39.407Z,150.90
2019-03-01T08:20:39.410Z,152.70
2019-03-01T08:21:42.814Z,160.50
2019-03-01T08:22:47.866Z,155.60
2019-03-01T08:25:23.426Z,160.60
2019-03-01T08:26:21.383Z,160.60
2019-03-01T08:27:21.366Z,166.40
2019-03-01T08:28:22.090Z,168.30
2019-03-01T08:29:21.315Z,167.30
2019-03-01T08:30:21.290Z,169.50
2019-03-01T08:31:22.264Z,163.70
2019-03-01T08:32:21.247Z,162.50
2019-03-01T08:33:22.917Z,157.30
2019-03-01T08:34:21.218Z,151.60
2019-03-01T08:35:21.194Z,157.80
2019-03-01T08:36:21.168Z,156.80
2019-03-01T08:37:21.164Z,156.00
2019-03-01T08:38:21.125Z,155.30
2019-03-01T08:39:21.105Z,157.60
2019-03-01T08:40:21.087Z,153.20
2019-03-01T08:41:21.583Z,163.50
2019-03-01T08:42:21.053Z,154.00
2019-03-01T08:43:21.535Z,164.60
2019-03-01T08:44:23.139Z,159.80
2019-03-01T08:45:21.080Z,164.70
2019-03-01T08:46:21.083Z,167.70
2019-03-01T08:47:24.519Z,168.70
2019-03-01T08:48:21.024Z,175.90
2019-03-01T08:49:20.927Z,181.80
2019-03-01T08:50:20.887Z,174.70
2019-03-01T08:51:22.789Z,172.20
2019-03-01T08:52:20.844Z,165.50
2019-03-01T08:53:20.842Z,166.40
2019-03-01T08:54:22.814Z,168.30
2019-03-01T08:55:20.790Z,177.70
2019-03-01T08:56:26.267Z,171.20
2019-03-01T08:57:22.525Z,168.90
2019-03-01T08:58:20.723Z,166.50
2019-03-01T08:59:20.702Z,174.20
2019-03-01T09:00:23.236Z,160.70
2019-03-01T09:01:20.662Z,172.80
2019-03-01T09:02:20.644Z,167.90
2019-03-01T09:03:22.221Z,169.20
2019-03-01T09:04:21.651Z,173.60
2019-03-01T09:05:20.584Z,164.70
2019-03-01T09:06:20.562Z,173.40
2019-03-01T09:07:20.544Z,172.90
2019-03-01T09:08:20.547Z,179.50
2019-03-01T09:09:20.894Z,177.20
2019-03-01T09:10:20.499Z,170.50
2019-03-01T09:11:20.465Z,181.00
2019-03-01T09:12:20.446Z,181.70
2019-03-01T09:13:20.446Z,175.10
2019-03-01T09:14:22.660Z,177.20
2019-03-01T09:15:20.380Z,178.80
2019-03-01T09:16:20.388Z,181.40
2019-03-01T09:17:20.346Z,180.20
2019-03-01T09:18:20.327Z,184.10
2019-03-01T09:19:22.282Z,185.70
2019-03-01T09:20:20.301Z,178.80
2019-03-01T09:21:20.276Z,183.80
2019-03-01T09:22:20.244Z,188.40
2019-03-01T09:23:25.219Z,183.00
2019-03-01T09:24:20.295Z,182.90
2019-03-01T09:25:20.178Z,182.40
2019-03-01T09:26:20.773Z,179.10
2019-03-01T09:27:20.142Z,175.60
2019-03-01T09:28:20.124Z,177.10
2019-03-01T09:29:20.110Z,175.00
2019-03-01T09:30:20.081Z,166.60
2019-03-01T09:31:20.070Z,170.70
2019-03-01T09:32:20.054Z,165.20
2019-03-01T09:33:21.193Z,164.10
2019-03-01T09:34:19.994Z,165.70
2019-03-01T09:35:19.987Z,178.90
2019-03-01T09:36:21.388Z,172.90
2019-03-01T09:37:19.942Z,167.60
2019-03-01T09:38:19.918Z,173.70
2019-03-01T09:39:19.904Z,168.00
2019-03-01T09:40:19.874Z,172.10
2019-03-01T09:41:19.915Z,170.10
2019-03-01T09:42:19.867Z,151.10
2019-03-01T09:43:19.825Z,149.20
2019-03-01T09:44:19.797Z,149.30
2019-03-01T09:45:19.782Z,144.30
2019-03-01T09:46:20.922Z,148.20
2019-03-01T09:47:19.737Z,141.40
2019-03-01T09:48:19.716Z,134.80
2019-03-01T09:49:21.383Z,131.30
2019-03-01T09:50:19.675Z,132.00
2019-03-01T09:51:20.476Z,132.80
2019-03-01T09:52:20.406Z,137.40
2019-03-01T09:53:19.670Z,126.70
2019-03-01T09:54:19.605Z,123.50
2019-03-01T09:55:19.580Z,119.80
2019-03-01T09:56:19.566Z,116.70
2019-03-01T09:57:19.536Z,120.70
2019-03-01T09:58:19.580Z,118.60
2019-03-01T09:59:19.491Z,112.90
2019-03-01T10:00:19.481Z,108.90
2019-03-01T10:01:19.456Z,113.10
2019-03-01T10:02:19.443Z,113.20
2019-03-01T10:03:19.417Z,114.00
2019-03-01T10:04:19.418Z,115.20
2019-03-01T10:05:19.387Z,112.30
2019-03-01T10:06:19.356Z,107.60
2019-03-01T10:07:19.354Z,109.50
2019-03-01T10:08:19.323Z,113.30
2019-03-01T10:09:19.321Z,121.90
2019-03-01T10:10:19.281Z,118.60
2019-03-01T10:11:19.256Z,121.30
2019-03-01T10:12:19.233Z,117.90
2019-03-01T10:13:19.236Z,121.00
2019-03-01T10:14:20.369Z,117.80
2019-03-01T10:15:19.177Z,126.20
2019-03-01T10:16:19.163Z,120.80
2019-03-01T10:17:19.145Z,130.40
2019-03-01T10:18:19.120Z,123.30
2019-03-01T10:19:19.107Z,135.70
2019-03-01T10:20:19.080Z,136.60
2019-03-01T10:21:19.063Z,136.80
2019-03-01T10:22:19.039Z,140.60
2019-03-01T10:23:19.026Z,137.30
2019-03-01T10:24:18.998Z,134.00
2019-03-01T10:25:18.999Z,142.50
2019-03-01T10:26:18.964Z,143.80
2019-03-01T10:27:18.946Z,155.20
2019-03-01T10:28:18.921Z,161.50
2019-03-01T10:29:18.908Z,162.80
2019-03-01T10:30:18.877Z,160.30
2019-03-01T10:31:18.874Z,166.90
2019-03-01T10:32:18.835Z,158.30
2019-03-01T10:33:18.818Z,161.90
2019-03-01T10:34:18.795Z,166.30
2019-03-01T10:35:18.804Z,161.20
2019-03-01T10:36:18.766Z,152.90
2019-03-01T10:37:18.737Z,157.20
2019-03-01T10:38:18.771Z,151.70
2019-03-01T10:39:18.701Z,158.30
2019-03-01T10:40:18.697Z,149.20
2019-03-01T10:41:18.658Z,150.60
2019-03-01T10:42:18.651Z,136.40
2019-03-01T10:43:18.630Z,137.40
2019-03-01T10:44:18.598Z,141.70
2019-03-01T10:45:18.580Z,139.00
2019-03-01T10:46:18.590Z,139.60
2019-03-01T10:47:18.550Z,139.10
2019-03-01T10:48:18.537Z,132.40
2019-03-01T10:49:18.497Z,133.70
2019-03-01T10:50:18.498Z,126.80
2019-03-01T10:51:18.461Z,130.80
2019-03-01T10:52:18.438Z,130.70
2019-03-01T10:53:18.425Z,132.80
2019-03-01T10:54:18.402Z,132.80
2019-03-01T10:55:18.394Z,132.40
2019-03-01T10:56:18.374Z,138.60
2019-03-01T10:57:18.337Z,133.60
2019-03-01T10:58:18.325Z,140.90
2019-03-01T10:59:18.332Z,133.40
2019-03-01T11:00:18.274Z,139.40
2019-03-01T11:01:18.282Z,136.00
2019-03-01T11:02:18.240Z,138.70
2019-03-01T11:03:18.241Z,143.70
2019-03-01T11:04:18.941Z,131.80
2019-03-01T11:05:18.180Z,138.30
2019-03-01T11:06:18.164Z,142.40
2019-03-01T11:07:18.142Z,144.40
2019-03-01T11:08:18.139Z,158.60
2019-03-01T11:09:18.102Z,163.10
2019-03-01T11:10:18.083Z,167.30
2019-03-01T11:11:18.068Z,154.50
2019-03-01T11:12:18.040Z,144.70
2019-03-01T11:13:18.026Z,152.70
2019-03-01T11:14:18.019Z,153.80
2019-03-01T11:15:17.987Z,152.30
2019-03-01T11:16:17.978Z,150.90
2019-03-01T11:17:17.958Z,153.90
2019-03-01T11:18:17.924Z,155.80
2019-03-01T11:19:17.928Z,152.20
2019-03-01T11:20:17.887Z,154.50
2019-03-01T11:21:17.861Z,147.00
2019-03-01T11:22:17.866Z,150.80
2019-03-01T11:23:17.831Z,150.80
2019-03-01T11:24:17.820Z,150.30
2019-03-01T11:25:17.803Z,145.90
2019-03-01T11:26:17.767Z,147.60
2019-03-01T11:27:17.749Z,147.20
2019-03-01T11:28:17.750Z,149.30
2019-03-01T11:29:19.446Z,145.60
2019-03-01T11:30:17.691Z,140.90
2019-03-01T11:31:17.685Z,137.60
2019-03-01T11:32:17.646Z,141.40
2019-03-01T11:33:17.630Z,142.50
2019-03-01T11:34:17.606Z,133.10
2019-03-01T11:35:17.601Z,129.90
2019-03-01T11:36:17.583Z,124.90
2019-03-01T11:37:17.549Z,118.40
2019-03-01T11:38:17.533Z,124.70
2019-03-01T11:39:17.512Z,119.60
2019-03-01T11:40:17.490Z,127.00
2019-03-01T11:41:17.511Z,125.20
2019-03-01T11:42:17.466Z,118.60
2019-03-01T11:43:17.427Z,116.30
2019-03-01T11:44:17.409Z,111.60
2019-03-01T11:45:17.992Z,111.50
2019-03-01T11:46:17.380Z,114.10
2019-03-01T11:47:17.375Z,107.80
2019-03-01T11:48:17.334Z,112.60
2019-03-01T11:49:17.315Z,111.60
2019-03-01T11:50:17.302Z,110.10
2019-03-01T11:51:17.273Z,109.10
2019-03-01T11:52:17.251Z,109.00
2019-03-01T11:53:17.994Z,105.80
2019-03-01T11:54:17.216Z,101.40
2019-03-01T11:55:17.205Z,107.90
2019-03-01T11:56:17.183Z,110.40
2019-03-01T11:57:17.153Z,109.30
2019-03-01T11:58:17.137Z,99.10
2019-03-01T11:59:17.127Z,99.10
2019-03-01T12:00:17.093Z,91.60
2019-03-01T12:01:17.614Z,99.70
2019-03-01T12:02:17.063Z,104.50
2019-03-01T12:03:17.034Z,108.50
2019-03-01T12:04:17.014Z,114.10
2019-03-01T12:05:17.018Z,108.70
2019-03-01T12:06:16.970Z,113.30
2019-03-01T12:07:16.965Z,113.70
2019-03-01T12:08:16.930Z,110.40
2019-03-01T12:09:16.918Z,112.40
2019-03-01T12:10:16.900Z,109.80
2019-03-01T12:11:16.895Z,116.40
2019-03-01T12:12:16.873Z,108.20
2019-03-01T12:13:16.834Z,110.90
2019-03-01T12:14:16.826Z,103.00
2019-03-01T12:15:16.790Z,104.70
2019-03-01T12:16:16.789Z,103.70
2019-03-01T12:17:16.794Z,107.40
2019-03-01T12:18:16.728Z,113.40
2019-03-01T12:19:16.712Z,116.50
2019-03-01T12:20:16.698Z,101.90
2019-03-01T12:21:16.700Z,109.90
2019-03-01T12:22:17.425Z,110.60
2019-03-01T12:23:16.635Z,106.60
2019-03-01T12:24:16.613Z,109.40
2019-03-01T12:25:16.606Z,111.20
2019-03-01T12:26:16.580Z,118.70
2019-03-01T12:27:16.593Z,119.00
2019-03-01T12:28:16.570Z,109.80
2019-03-01T12:29:16.521Z,117.40
2019-03-01T12:30:16.494Z,116.80
2019-03-01T12:31:16.485Z,105.30
2019-03-01T12:32:16.482Z,110.20
2019-03-01T12:33:16.452Z,110.20
2019-03-01T12:34:16.424Z,103.00
2019-03-01T12:35:16.406Z,107.00
2019-03-01T12:36:16.372Z,103.70
2019-03-01T12:37:18.957Z,106.20
2019-03-01T12:38:16.332Z,89.80
2019-03-01T12:39:16.313Z,79.50
2019-03-01T12:40:16.323Z,72.30
2019-03-01T12:41:16.277Z,64.90
2019-03-01T12:42:16.255Z,62.90
2019-03-01T12:43:16.234Z,50.10
2019-03-01T12:44:16.216Z,47.90